Time;durP1;ratioP1;P1;durP2;ratioP2;P2;SDS_P1;SDS_P2;PMS_P1;PMS_P2;Temp;Humidity;BMP_temperature;BMP_pressure;BME280_temperature;BME280_humidity;BME280_pressure;Samples;Min_cycle;Max_cycle;Signal;HPM_P1;HPM_P2
2021/08/31 00:01:21;;;;;;;;;;;;;;;-144.99;95.71;52476.63;5047086;28;19980;-69
2021/08/31 00:03:47;;;;;;;;;;;;;;;-144.99;95.55;52456.25;5049884;28;19972;-67
2021/08/31 00:06:15;;;;;;;;;;;;;;;-144.99;95.68;52476.63;5051276;28;19975;-67
2021/08/31 00:08:41;;;;;;;;;;;;;;;-144.99;95.72;52486.81;5044964;28;19980;-67
2021/08/31 00:11:07;;;;;;;;;;;;;;;-144.99;96.19;52456.25;5047567;28;19979;-67
2021/08/31 00:13:34;;;;;;;;;;;;;;;-144.99;96.63;52521.47;5044301;28;19971;-69
2021/08/31 00:16:00;;;;;;;;;;;;;;;-144.99;96.91;52454.22;5047381;28;19976;-69
2021/08/31 00:18:26;;;;;;;;;;;;;;;-144.99;97.38;52476.63;5043933;28;20006;-68
2021/08/31 00:20:53;;;;;;;;;;;;;;;-144.99;97.66;52480.72;5043404;28;20037;-69
2021/08/31 00:23:20;;;;;;;;;;;;;;;-144.99;97.66;52464.41;5045828;28;20234;-69
2021/08/31 00:25:52;;;;;;;;;;;;;;;-144.99;97.89;52444.03;5041402;28;19971;-73
2021/08/31 00:28:18;;;;;;;;;;;;;;;-144.99;97.82;52480.72;5045547;28;19992;-73
2021/08/31 00:30:45;;;;;;;;;;;;;;;-144.99;98.02;52474.59;5046201;28;19972;-73
2021/08/31 00:33:11;;;;;;;;;;;;;;;-144.99;97.77;52484.78;5047317;28;19979;-74
2021/08/31 00:35:38;;;;;;;;;;;;;;;-144.99;97.83;52446.06;5043237;28;19975;-74
2021/08/31 00:38:04;;;;;;;;;;;;;;;-144.99;98.00;52468.47;5044177;28;19995;-74
2021/08/31 00:40:32;;;;;;;;;;;;;;;-144.99;98.21;52460.31;5048023;28;19972;-73
2021/08/31 00:42:59;;;;;;;;;;;;;;;-144.99;98.07;52501.09;5047732;28;19983;-73
2021/08/31 00:45:25;;;;;;;;;;;;;;;-144.99;98.02;52501.09;5048368;28;20029;-75
2021/08/31 00:47:53;;;;;;;;;;;;;;;-144.99;98.13;52517.41;5048306;28;20082;-74
2021/08/31 00:50:20;;;;;;;;;;;;;;;-144.99;98.16;52492.94;5056740;28;20724;-74
2021/08/31 00:52:46;;;;;;;;;;;;;;;-144.99;98.51;52464.41;5056705;28;20475;-74
2021/08/31 00:55:13;;;;;;;;;;;;;;;-144.99;98.31;52484.78;5056141;28;19957;-74
2021/08/31 00:57:41;;;;;;;;;;;;;;;-144.99;98.44;52468.47;5054354;28;19990;-75
2021/08/31 01:00:09;;;;;;;;;;;;;;;-144.99;98.59;52497.00;5049496;28;19996;-73
2021/08/31 01:02:35;;;;;;;;;;;;;;;-144.99;99.14;52450.13;5048646;28;19972;-73
2021/08/31 01:05:02;;;;;;;;;;;;;;;-144.99;99.16;52484.78;5051027;28;19971;-74
2021/08/31 01:07:29;;;;;;;;;;;;;;;-144.99;99.27;52488.84;5051677;28;19992;-73
2021/08/31 01:09:56;;;;;;;;;;;;;;;-144.99;99.77;52476.63;5050219;28;19973;-74
2021/08/31 01:12:26;;;;;;;;;;;;;;;-144.99;100.00;52488.84;5050161;28;20045;-73
2021/08/31 01:14:55;;;;;;;;;;;;;;;-144.99;100.00;52419.56;5052518;28;19973;-73
2021/08/31 01:17:24;;;;;;;;;;;;;;;-144.99;100.00;52478.66;5053462;28;20481;-74
2021/08/31 01:19:50;;;;;;;;;;;;;;;-144.99;100.00;52462.34;5053742;28;19986;-73
2021/08/31 01:22:16;;;;;;;;;;;;;;;-144.99;100.00;52470.50;5051141;28;19978;-73
2021/08/31 01:24:43;;;;;;;;;;;;;;;-144.99;100.00;52456.25;5052296;28;19979;-74
2021/08/31 01:27:11;;;;;;;;;;;;;;;-144.99;100.00;52444.03;5044822;28;20444;-74
2021/08/31 01:29:38;;;;;;;;;;;;;;;-144.99;100.00;52458.28;5045620;28;19975;-73
2021/08/31 01:32:06;;;;;;;;;;;;;;;-144.99;100.00;52474.59;5049499;28;19973;-74
2021/08/31 01:34:32;;;;;;;;;;;;;;;-144.99;100.00;52492.94;5049882;28;20436;-70
2021/08/31 01:36:59;;;;;;;;;;;;;;;-144.99;100.00;52435.88;5049952;28;19988;-68
2021/08/31 01:39:26;;;;;;;;;;;;;;;-144.99;100.00;52501.09;5048954;28;20039;-68
2021/08/31 01:41:52;;;;;;;;;;;;;;;-144.99;100.00;52468.47;5048798;28;20071;-68
2021/08/31 01:44:20;;;;;;;;;;;;;;;-144.99;100.00;52466.44;5049548;28;19979;-68
2021/08/31 01:46:46;;;;;;;;;;;;;;;-144.99;100.00;52450.13;5045047;28;19989;-68
2021/08/31 01:49:13;;;;;;;;;;;;;;;-144.99;100.00;52452.16;5048744;28;19972;-68
2021/08/31 01:51:39;;;;;;;;;;;;;;;-144.99;100.00;52476.63;5046191;28;20097;-68
2021/08/31 01:54:06;;;;;;;;;;;;;;;-144.99;100.00;52435.88;5047840;28;19993;-68
2021/08/31 01:56:32;;;;;;;;;;;;;;;-144.99;100.00;52484.78;5051400;28;20012;-68
2021/08/31 01:58:59;;;;;;;;;;;;;;;-144.99;100.00;52488.84;5049583;28;19992;-68
2021/08/31 02:01:26;;;;;;;;;;;;;;;-144.99;100.00;52501.09;5051432;28;20429;-68
2021/08/31 02:03:53;;;;;;;;;;;;;;;-144.99;100.00;52492.94;5054518;28;19972;-68
2021/08/31 02:06:19;;;;;;;;;;;;;;;-144.99;100.00;52480.72;5049122;28;19976;-68
2021/08/31 02:08:45;;;;;;;;;;;;;;;-144.99;100.00;52476.63;5050978;28;19948;-68
2021/08/31 02:11:12;;;;;;;;;;;;;;;-144.99;100.00;52482.75;5050639;28;19999;-68
2021/08/31 02:13:38;;;;;;;;;;;;;;;-144.99;100.00;52470.50;5050720;28;19980;-69
2021/08/31 02:16:05;;;;;;;;;;;;;;;-144.99;100.00;52482.75;5048703;28;19980;-66
2021/08/31 02:18:32;;;;;;;;;;;;;;;-144.99;100.00;52484.78;5049961;28;19997;-66
2021/08/31 02:20:59;;;;;;;;;;;;;;;-144.99;100.00;52468.47;5054729;28;20359;-66
2021/08/31 02:23:25;;;;;;;;;;;;;;;-144.99;100.00;52486.81;5049738;28;20029;-66
2021/08/31 02:25:51;;;;;;;;;;;;;;;-144.99;100.00;52505.16;5049028;28;19971;-65
2021/08/31 02:28:18;;;;;;;;;;;;;;;-144.99;100.00;52480.72;5048217;28;20467;-66
2021/08/31 02:30:44;;;;;;;;;;;;;;;-144.99;100.00;52492.94;5048506;28;19975;-64
2021/08/31 02:33:10;;;;;;;;;;;;;;;-144.99;100.00;52472.56;5060360;28;19975;-65
2021/08/31 02:35:38;;;;;;;;;;;;;;;-144.99;100.00;52472.56;5049361;28;19975;-65
2021/08/31 02:38:04;;;;;;;;;;;;;;;-144.99;100.00;52431.78;5048211;28;19996;-69
2021/08/31 02:40:31;;;;;;;;;;;;;;;-144.99;100.00;52435.88;5052901;28;19987;-68
2021/08/31 02:42:57;;;;;;;;;;;;;;;-144.99;100.00;52509.25;5057410;28;19980;-68
2021/08/31 02:45:24;;;;;;;;;;;;;;;-144.99;100.00;52476.63;5048510;28;19978;-68
2021/08/31 02:47:50;;;;;;;;;;;;;;;-144.99;100.00;52452.16;5045850;28;19991;-68
2021/08/31 02:50:16;;;;;;;;;;;;;;;-144.99;100.00;52476.63;5045938;28;19980;-68
2021/08/31 02:52:45;;;;;;;;;;;;;;;-144.99;100.00;52497.00;5045268;28;19992;-68
2021/08/31 02:55:11;;;;;;;;;;;;;;;-144.99;100.00;52460.31;5047963;28;19980;-65
2021/08/31 02:57:38;;;;;;;;;;;;;;;-144.99;100.00;52448.09;5044850;28;19995;-65
2021/08/31 03:00:05;;;;;;;;;;;;;;;-144.99;100.00;52460.31;5041418;28;19988;-69
2021/08/31 03:02:31;;;;;;;;;;;;;;;-144.99;100.00;52511.28;5045803;28;19977;-69
2021/08/31 03:04:57;;;;;;;;;;;;;;;-144.99;100.00;52474.59;5045166;28;20435;-69
2021/08/31 03:07:24;;;;;;;;;;;;;;;-144.99;100.00;52454.22;5046692;28;20011;-67
2021/08/31 03:09:51;;;;;;;;;;;;;;;-144.99;100.00;52484.78;5049227;28;19984;-67
2021/08/31 03:12:18;;;;;;;;;;;;;;;-144.99;100.00;52474.59;5057202;28;19980;-73
2021/08/31 03:14:45;;;;;;;;;;;;;;;-144.99;100.00;52501.09;5047590;28;20249;-73
2021/08/31 03:17:11;;;;;;;;;;;;;;;-144.99;100.00;52480.72;5050212;28;20011;-73
2021/08/31 03:19:39;;;;;;;;;;;;;;;-144.99;100.00;52458.28;5046964;28;20000;-72
2021/08/31 03:22:09;;;;;;;;;;;;;;;-144.99;100.00;52452.16;5048552;28;20075;-71
2021/08/31 03:24:35;;;;;;;;;;;;;;;-144.99;100.00;52497.00;5053153;28;19971;-71
2021/08/31 03:27:03;;;;;;;;;;;;;;;-144.99;100.00;52509.25;5045947;28;20566;-70
2021/08/31 03:29:29;;;;;;;;;;;;;;;-144.99;100.00;52499.06;5046320;28;19979;-71
2021/08/31 03:31:55;;;;;;;;;;;;;;;-144.99;100.00;52476.63;5050067;28;19984;-70
2021/08/31 03:34:22;;;;;;;;;;;;;;;-144.99;100.00;52484.78;5055543;28;19975;-70
2021/08/31 03:36:50;;;;;;;;;;;;;;;-144.99;100.00;52472.56;5047529;28;19996;-71
2021/08/31 03:39:16;;;;;;;;;;;;;;;-144.99;100.00;52472.56;5046089;28;20017;-70
2021/08/31 03:41:42;;;;;;;;;;;;;;;-144.99;100.00;52472.56;5050500;28;19981;-71
2021/08/31 03:44:10;;;;;;;;;;;;;;;-144.99;100.00;52458.28;5049066;28;19982;-71
2021/08/31 03:46:36;;;;;;;;;;;;;;;-144.99;100.00;52476.63;5047061;28;19999;-72
2021/08/31 03:49:03;;;;;;;;;;;;;;;-144.99;100.00;52492.94;5046802;28;19983;-72
2021/08/31 03:51:29;;;;;;;;;;;;;;;-144.99;100.00;52509.25;5044767;28;19949;-73
2021/08/31 03:53:56;;;;;;;;;;;;;;;-144.99;100.00;52515.34;5047818;28;19976;-72
2021/08/31 03:56:22;;;;;;;;;;;;;;;-144.99;100.00;52480.72;5047357;28;19972;-72
2021/08/31 03:58:48;;;;;;;;;;;;;;;-144.99;100.00;52480.72;5049554;28;20010;-72
2021/08/31 04:01:16;;;;;;;;;;;;;;;-144.99;100.00;52509.25;5047772;28;20428;-72
2021/08/31 04:03:43;;;;;;;;;;;;;;;-144.99;100.00;52476.63;5046188;28;19977;-72
2021/08/31 04:06:09;;;;;;;;;;;;;;;-144.99;100.00;52462.34;5047661;28;19976;-72
2021/08/31 04:08:36;;;;;;;;;;;;;;;-144.99;100.00;52468.47;5046799;28;19995;-72
2021/08/31 04:11:02;;;;;;;;;;;;;;;-144.99;100.00;52505.16;5042317;28;20605;-72
2021/08/31 04:13:28;;;;;;;;;;;;;;;-144.99;100.00;52501.09;5046988;28;20000;-72
2021/08/31 04:15:55;;;;;;;;;;;;;;;-144.99;100.00;52468.47;5044982;28;19982;-72
2021/08/31 04:18:22;;;;;;;;;;;;;;;-144.99;100.00;52472.56;5046763;28;19988;-70
2021/08/31 04:20:49;;;;;;;;;;;;;;;-144.99;100.00;52492.94;5048465;28;20286;-71
2021/08/31 04:23:15;;;;;;;;;;;;;;;-144.99;100.00;52464.41;5045189;28;19972;-72
2021/08/31 04:25:41;;;;;;;;;;;;;;;-144.99;100.00;52456.25;5042988;28;19976;-73
2021/08/31 04:28:08;;;;;;;;;;;;;;;-144.99;100.00;52460.31;5045881;28;20040;-72
2021/08/31 04:30:34;;;;;;;;;;;;;;;-144.99;100.00;52484.78;5049571;28;19976;-72
2021/08/31 04:33:01;;;;;;;;;;;;;;;-144.99;100.00;52456.25;5049966;28;20316;-72
2021/08/31 04:35:28;;;;;;;;;;;;;;;-144.99;100.00;52460.31;5050001;28;20470;-72
2021/08/31 04:37:55;;;;;;;;;;;;;;;-144.99;100.00;52452.16;5051849;28;20360;-72
2021/08/31 04:40:21;;;;;;;;;;;;;;;-144.99;100.00;52456.25;5050074;28;19994;-73
2021/08/31 04:42:48;;;;;;;;;;;;;;;-144.99;100.00;52460.31;5048088;28;20360;-72
2021/08/31 04:45:15;;;;;;;;;;;;;;;-144.99;100.00;52527.59;5049969;28;19976;-72
2021/08/31 04:47:41;;;;;;;;;;;;;;;-144.99;100.00;52458.28;5065298;22;19993;-62
2021/08/31 04:50:08;;;;;;;;;;;;;;;-144.99;100.00;52466.44;5067998;28;19986;-62
2021/08/31 04:52:36;;;;;;;;;;;;;;;-144.99;100.00;52497.00;5063121;28;19976;-61
2021/08/31 04:55:02;;;;;;;;;;;;;;;-144.99;100.00;52452.16;5065568;28;19979;-60
2021/08/31 04:57:29;;;;;;;;;;;;;;;-144.99;100.00;52448.09;5067888;28;19988;-62
2021/08/31 04:59:55;;;;;;;;;;;;;;;-144.99;100.00;52456.25;5066116;28;20705;-65
2021/08/31 05:02:21;;;;;;;;;;;;;;;-144.99;100.00;52448.09;5067097;28;19994;-65
2021/08/31 05:04:48;;;;;;;;;;;;;;;-144.99;100.00;52472.56;5064574;28;19977;-65
2021/08/31 05:07:14;;;;;;;;;;;;;;;-144.99;100.00;52476.63;5067601;28;19995;-66
2021/08/31 05:09:42;;;;;;;;;;;;;;;-144.99;100.00;52456.25;5064813;28;19978;-66
2021/08/31 05:12:08;;;;;;;;;;;;;;;-144.99;100.00;52525.56;5065206;28;20472;-66
2021/08/31 05:14:35;;;;;;;;;;;;;;;-144.99;100.00;52476.63;4363578;28;9999791;-65
2021/08/31 05:17:02;;;;;;;;;;;;;;;-144.99;100.00;52444.03;5062533;28;19993;-66
2021/08/31 05:19:28;;;;;;;;;;;;;;;-144.99;100.00;52464.41;5059707;28;20007;-65
2021/08/31 05:21:55;;;;;;;;;;;;;;;-144.99;100.00;52456.25;5063393;28;20010;-66
2021/08/31 05:24:21;;;;;;;;;;;;;;;-144.99;100.00;52472.56;5060217;28;19987;-66
2021/08/31 05:26:49;;;;;;;;;;;;;;;-144.99;100.00;52407.31;5069505;28;20162;-61
2021/08/31 05:29:15;;;;;;;;;;;;;;;-144.99;100.00;52431.78;5063458;28;19984;-61
2021/08/31 05:31:43;;;;;;;;;;;;;;;-144.99;100.00;52464.41;5063153;28;19984;-60
2021/08/31 05:34:10;;;;;;;;;;;;;;;-144.99;100.00;52415.47;5059308;28;19985;-61
2021/08/31 05:36:36;;;;;;;;;;;;;;;-144.99;100.00;52427.72;5063439;28;20123;-61
2021/08/31 05:39:05;;;;;;;;;;;;;;;-144.99;100.00;52429.75;5068139;28;20303;-61
2021/08/31 05:41:31;;;;;;;;;;;;;;;-144.99;100.00;52431.78;5067734;28;20004;-61
2021/08/31 05:43:59;;;;;;;;;;;;;;;-144.99;100.00;52444.03;5067803;28;19982;-62
2021/08/31 05:46:25;;;;;;;;;;;;;;;-144.99;100.00;52439.94;5068169;28;19985;-61
2021/08/31 05:48:52;;;;;;;;;;;;;;;-144.99;100.00;52441.97;5068493;28;19983;-62
2021/08/31 05:51:18;;;;;;;;;;;;;;;-144.99;100.00;52476.63;5068338;28;19985;-62
2021/08/31 05:53:45;;;;;;;;;;;;;;;-144.99;100.00;52427.72;5063241;28;20031;-60
2021/08/31 05:56:11;;;;;;;;;;;;;;;-144.99;99.74;52444.03;5065263;28;20378;-61
2021/08/31 05:58:38;;;;;;;;;;;;;;;-144.99;99.70;52437.91;5068068;28;20001;-62
2021/08/31 06:01:06;;;;;;;;;;;;;;;-144.99;99.48;52431.78;5067561;28;20001;-62
2021/08/31 06:03:32;;;;;;;;;;;;;;;-144.99;99.09;52448.09;5066674;28;19979;-62
2021/08/31 06:05:58;;;;;;;;;;;;;;;-144.99;99.09;52448.09;5058462;28;19987;-60
2021/08/31 06:08:26;;;;;;;;;;;;;;;-144.99;98.73;52415.47;5066629;28;20013;-61
2021/08/31 06:10:52;;;;;;;;;;;;;;;-144.99;98.11;52421.59;5054974;28;19980;-61
2021/08/31 06:13:18;;;;;;;;;;;;;;;-144.99;97.65;52413.44;5067990;28;19940;-61
2021/08/31 06:15:45;;;;;;;;;;;;;;;-144.99;97.53;52452.16;5064291;28;19991;-61
2021/08/31 06:18:12;;;;;;;;;;;;;;;-144.99;97.69;52435.88;5067594;28;20016;-61
2021/08/31 06:20:39;;;;;;;;;;;;;;;-144.99;97.59;52444.03;5066178;28;20019;-61
2021/08/31 06:23:05;;;;;;;;;;;;;;;-144.99;97.67;52372.69;5067916;28;20005;-62
2021/08/31 06:25:31;;;;;;;;;;;;;;;-144.99;96.96;52407.31;5062907;28;19954;-61
2021/08/31 06:27:58;;;;;;;;;;;;;;;-144.99;96.80;52401.22;5067691;28;19924;-61
2021/08/31 06:30:24;;;;;;;;;;;;;;;-144.99;96.31;52399.19;5060798;28;20420;-61
2021/08/31 06:32:51;;;;;;;;;;;;;;;-144.99;95.65;52423.63;5065608;28;20319;-61
2021/08/31 06:35:18;;;;;;;;;;;;;;;-144.99;95.25;52366.56;5063590;28;19973;-61
2021/08/31 06:37:45;;;;;;;;;;;;;;;-144.99;94.66;52382.88;5058704;28;19992;-61
2021/08/31 06:40:12;;;;;;;;;;;;;;;-144.99;93.92;52407.31;5067692;28;20016;-59
2021/08/31 06:42:39;;;;;;;;;;;;;;;-144.99;93.15;52409.38;5067932;28;19981;-60
2021/08/31 06:45:06;;;;;;;;;;;;;;;-144.99;92.35;52356.38;5067615;28;19984;-61
2021/08/31 06:47:32;;;;;;;;;;;;;;;-144.99;92.03;52391.03;5060812;28;19997;-61
2021/08/31 06:49:58;;;;;;;;;;;;;;;-144.99;91.02;52401.22;5066148;28;20371;-61
2021/08/31 06:52:26;;;;;;;;;;;;;;;-144.99;90.60;52372.69;5067157;28;20419;-61
2021/08/31 06:54:52;;;;;;;;;;;;;;;-144.99;90.04;52370.63;5067507;28;19991;-60
2021/08/31 06:57:20;;;;;;;;;;;;;;;-144.99;89.16;52374.72;5065701;28;19992;-60
2021/08/31 06:59:46;;;;;;;;;;;;;;;-144.99;89.16;52382.88;5066827;28;20011;-60
2021/08/31 07:02:12;;;;;;;;;;;;;;;-144.99;88.86;52378.78;5066539;28;20385;-60
2021/08/31 07:04:39;;;;;;;;;;;;;;;-144.99;88.76;52403.25;5061432;28;19981;-60
2021/08/31 07:07:05;;;;;;;;;;;;;;;-144.99;88.58;52346.19;5058814;28;19996;-60
2021/08/31 07:09:33;;;;;;;;;;;;;;;-144.99;88.16;52360.44;5061273;28;19981;-60
2021/08/31 07:11:59;;;;;;;;;;;;;;;-144.99;87.94;52368.59;5059211;28;19996;-60
2021/08/31 07:14:25;;;;;;;;;;;;;;;-144.99;87.30;52301.34;5066419;28;19981;-60
2021/08/31 07:16:52;;;;;;;;;;;;;;;-144.99;87.02;52329.88;5061851;28;20285;-60
2021/08/31 07:19:18;;;;;;;;;;;;;;;-144.99;86.71;52342.09;5066308;28;19985;-60
2021/08/31 07:21:45;;;;;;;;;;;;;;;-144.99;85.80;52348.22;5066396;28;19997;-61
2021/08/31 07:24:11;;;;;;;;;;;;;;;-144.99;85.47;52342.09;5066320;28;20020;-61
2021/08/31 07:26:39;;;;;;;;;;;;;;;-144.99;84.97;52366.56;5065436;28;19997;-61
2021/08/31 07:29:05;;;;;;;;;;;;;;;-144.99;84.58;52329.88;5065234;28;19976;-61
2021/08/31 07:31:32;;;;;;;;;;;;;;;-144.99;84.08;52325.81;5050131;28;19977;-61
2021/08/31 07:33:58;;;;;;;;;;;;;;;-144.99;83.76;52354.34;5066385;28;19997;-61
2021/08/31 07:36:24;;;;;;;;;;;;;;;-144.99;83.01;52291.16;5065961;28;19985;-61
2021/08/31 07:38:51;;;;;;;;;;;;;;;-144.99;82.01;52333.94;5063336;28;20058;-61
2021/08/31 07:41:18;;;;;;;;;;;;;;;-144.99;81.69;52358.41;5066388;28;20075;-61
2021/08/31 07:43:46;;;;;;;;;;;;;;;-144.99;81.11;52358.41;5066382;28;20372;-61
2021/08/31 07:46:13;;;;;;;;;;;;;;;-144.99;80.83;52342.09;5066494;28;20028;-61
2021/08/31 07:48:39;;;;;;;;;;;;;;;-144.99;80.43;52327.84;5063770;28;20005;-61
2021/08/31 07:51:06;;;;;;;;;;;;;;;-144.99;80.38;52289.13;5060828;28;20419;-61
2021/08/31 07:53:32;;;;;;;;;;;;;;;-144.99;79.28;52309.50;5066619;28;20488;-60
2021/08/31 07:55:58;;;;;;;;;;;;;;;-144.99;78.22;52319.69;5066123;28;19977;-60
2021/08/31 07:58:25;;;;;;;;;;;;;;;-144.99;77.64;52305.41;5062632;28;20451;-62
2021/08/31 08:00:53;;;;;;;;;;;;;;;-144.99;77.30;52325.81;5064281;28;20298;-62
2021/08/31 08:03:19;;;;;;;;;;;;;;;-144.99;77.10;52317.66;5063760;28;19987;-61
2021/08/31 08:05:46;;;;;;;;;;;;;;;-144.99;76.64;52317.66;5061484;28;19998;-61
2021/08/31 08:08:12;;;;;;;;;;;;;;;-144.99;76.01;52366.56;5065608;28;20004;-61
2021/08/31 08:10:38;;;;;;;;;;;;;;;-144.99;75.07;52321.72;5051317;28;19986;-61
2021/08/31 08:13:05;;;;;;;;;;;;;;;-144.99;74.40;52329.88;5065999;28;20023;-61
2021/08/31 08:15:31;;;;;;;;;;;;;;;-144.99;73.47;52301.34;5065768;28;19984;-61
2021/08/31 08:18:00;;;;;;;;;;;;;;;-144.99;72.90;52295.22;5065343;28;20522;-61
2021/08/31 08:20:26;;;;;;;;;;;;;;;-144.99;72.54;52321.72;5062134;28;20002;-61
2021/08/31 08:22:53;;;;;;;;;;;;;;;-144.99;71.76;52307.47;5066040;28;19978;-59
2021/08/31 08:25:19;;;;;;;;;;;;;;;-144.99;70.73;52285.03;5066110;28;20522;-60
2021/08/31 08:27:46;;;;;;;;;;;;;;;-144.99;70.21;52317.66;5065906;28;19997;-60
2021/08/31 08:30:12;;;;;;;;;;;;;;;-144.99;69.13;52309.50;5063659;28;19980;-60
2021/08/31 08:32:39;;;;;;;;;;;;;;;-144.99;68.20;52252.44;5065573;28;19972;-60
2021/08/31 08:35:07;;;;;;;;;;;;;;;-144.99;67.62;52305.41;5066339;28;20181;-60
2021/08/31 08:37:34;;;;;;;;;;;;;;;-144.99;66.34;52276.88;5064815;28;20524;-60
2021/08/31 08:40:00;;;;;;;;;;;;;;;-144.99;66.20;52276.88;5064340;28;20005;-61
2021/08/31 08:42:26;;;;;;;;;;;;;;;-144.99;65.51;52268.72;5065332;28;19986;-60
2021/08/31 08:44:53;;;;;;;;;;;;;;;-144.99;64.49;52291.16;5066064;28;19977;-60
2021/08/31 08:47:19;;;;;;;;;;;;;;;-144.99;63.62;52289.13;5065001;28;19968;-60
2021/08/31 08:49:47;;;;;;;;;;;;;;;-144.99;63.09;52285.03;5065731;28;20122;-61
2021/08/31 08:52:15;;;;;;;;;;;;;;;-144.99;62.53;52317.66;5049445;28;20303;-60
2021/08/31 08:54:42;;;;;;;;;;;;;;;-144.99;62.11;52248.34;5064110;28;19984;-60
2021/08/31 08:57:08;;;;;;;;;;;;;;;-144.99;62.01;52297.25;5065511;28;20004;-60
2021/08/31 08:59:38;;;;;;;;;;;;;;;-144.99;61.32;52289.13;5065163;28;19982;-60
2021/08/31 09:02:05;;;;;;;;;;;;;;;-144.99;59.82;52260.56;5056172;28;20097;-60
2021/08/31 09:04:45;;;;;;;;;;;;;;;-144.99;59.59;52236.13;5064607;28;19953;-60
2021/08/31 09:07:20;;;;;;;;;;;;;;;-144.99;59.06;52223.88;5052765;28;20383;-60
2021/08/31 09:09:48;;;;;;;;;;;;;;;-144.99;58.15;52248.34;5052065;28;19982;-61
2021/08/31 09:12:29;;;;;;;;;;;;;;;-144.99;57.76;52232.03;5051511;28;19936;-60
2021/08/31 09:14:55;;;;;;;;;;;;;;;-144.99;57.33;52276.88;5069337;28;19956;-60
2021/08/31 09:17:21;;;;;;;;;;;;;;;-144.99;56.21;52236.13;5068270;28;20366;-60
2021/08/31 09:19:48;;;;;;;;;;;;;;;-144.99;56.02;52236.13;5069243;28;19974;-60
2021/08/31 09:22:15;;;;;;;;;;;;;;;-144.99;56.19;52232.03;5064637;28;20457;-60
2021/08/31 09:24:56;;;;;;;;;;;;;;;-144.99;55.08;52223.88;5068666;28;20390;-60
2021/08/31 09:27:31;;;;;;;;;;;;;;;-144.99;54.20;52276.88;5069405;28;19975;-61
2021/08/31 09:30:13;;;;;;;;;;;;;;;-144.99;53.71;52246.31;5062095;28;19966;-63
2021/08/31 09:32:40;;;;;;;;;;;;;;;-144.99;53.82;52213.69;5065452;28;20346;-61
2021/08/31 09:35:15;;;;;;;;;;;;;;;-144.99;52.48;52215.75;5068606;28;20524;-61
2021/08/31 09:37:45;;;;;;;;;;;;;;;-144.99;51.46;52215.75;5068123;28;19996;-62
2021/08/31 09:40:15;;;;;;;;;;;;;;;-144.99;51.59;52211.66;5068364;28;20191;-61
2021/08/31 09:42:54;;;;;;;;;;;;;;;-144.99;50.83;52223.88;5065895;28;19973;-61
2021/08/31 09:45:25;;;;;;;;;;;;;;;-144.99;50.31;52193.31;5065865;28;19928;-62
2021/08/31 09:47:52;;;;;;;;;;;;;;;-144.99;50.14;52199.44;5067987;28;20010;-61
2021/08/31 09:50:28;;;;;;;;;;;;;;;-144.99;50.05;52183.13;5068059;28;20328;-61
2021/08/31 09:53:00;;;;;;;;;;;;;;;-144.99;49.12;52166.81;5065459;28;19963;-61
2021/08/31 09:55:27;;;;;;;;;;;;;;;-144.99;48.66;52185.16;5059995;28;20388;-61
2021/08/31 09:58:06;;;;;;;;;;;;;;;-144.99;48.44;52219.81;5068360;28;19963;-62
2021/08/31 10:00:32;;;;;;;;;;;;;;;-144.99;48.13;52183.13;5068360;28;19956;-62
2021/08/31 10:02:59;;;;;;;;;;;;;;;-144.99;47.39;52174.97;5065730;28;19939;-62
2021/08/31 10:05:26;;;;;;;;;;;;;;;-144.99;46.95;52146.44;5057490;28;19931;-62
2021/08/31 10:07:53;;;;;;;;;;;;;;;-144.99;46.32;52174.97;5065694;28;19932;-62
2021/08/31 10:10:20;;;;;;;;;;;;;;;-144.99;45.37;52138.28;5062292;28;19935;-62
2021/08/31 10:12:48;;;;;;;;;;;;;;;-144.99;45.29;52146.44;5068378;28;19925;-62
2021/08/31 10:15:15;;;;;;;;;;;;;;;-144.99;45.32;52130.13;5067553;28;19932;-62
2021/08/31 10:17:44;;;;;;;;;;;;;;;-144.99;44.37;52105.69;5067099;28;19928;-62
2021/08/31 10:20:13;;;;;;;;;;;;;;;-144.99;44.25;52154.59;5067210;28;19928;-62
2021/08/31 10:22:39;;;;;;;;;;;;;;;-144.99;43.84;52113.84;5066177;28;20008;-62
2021/08/31 10:25:06;;;;;;;;;;;;;;;-144.99;42.74;52158.66;5066456;28;20704;-62
2021/08/31 10:27:34;;;;;;;;;;;;;;;-144.99;43.44;52152.56;5053908;28;19936;-62
2021/08/31 10:30:20;;;;;;;;;;;;;;;-144.99;43.64;52115.88;5059318;28;20000;-62
2021/08/31 10:32:49;;;;;;;;;;;;;;;-144.99;43.86;52073.06;5058710;28;20459;-62
2021/08/31 10:35:43;;;;;;;;;;;;;;;-144.99;41.89;52044.53;5067165;28;19928;-62
2021/08/31 10:38:10;;;;;;;;;;;;;;;-144.99;40.71;52022.13;5066471;28;19939;-61
2021/08/31 10:40:37;;;;;;;;;;;;;;;-144.99;40.25;52036.38;5066997;28;20095;-62
2021/08/31 10:43:04;;;;;;;;;;;;;;;-144.99;40.42;52134.22;5063180;28;19935;-62
2021/08/31 10:45:37;;;;;;;;;;;;;;;-144.99;40.34;52016.00;5066768;28;19979;-63
2021/08/31 10:48:18;;;;;;;;;;;;;;;-144.99;40.10;52022.13;5066444;28;19928;-62
2021/08/31 10:50:49;;;;;;;;;;;;;;;-144.99;40.23;51991.56;5078954;22;19928;-65
2021/08/31 10:53:35;;;;;;;;;;;;;;;-144.99;40.38;52003.78;5059975;28;20241;-64
2021/08/31 10:56:21;;;;;;;;;;;;;;;-144.99;40.17;51991.56;5071619;28;19928;-65
2021/08/31 10:58:48;;;;;;;;;;;;;;;-144.99;39.67;51946.72;5047015;28;19936;-65
2021/08/31 11:01:16;;;;;;;;;;;;;;;-144.99;39.10;51993.59;5047145;28;19932;-65
2021/08/31 11:03:42;;;;;;;;;;;;;;;-144.99;38.96;51940.59;5046544;28;19929;-66
2021/08/31 11:06:21;;;;;;;;;;;;;;;-144.99;38.49;52028.22;5038631;28;19931;-65
2021/08/31 11:09:07;;;;;;;;;;;;;;;-144.99;38.10;51926.34;5040074;28;19933;-66
2021/08/31 11:11:33;;;;;;;;;;;;;;;-144.99;38.12;51950.78;5035945;28;19929;-66
2021/08/31 11:14:00;;;;;;;;;;;;;;;-144.99;37.76;51920.22;5043682;28;20394;-66
2021/08/31 11:16:26;;;;;;;;;;;;;;;-144.99;37.48;51901.88;5047124;28;19928;-66
2021/08/31 11:18:53;;;;;;;;;;;;;;;-144.99;36.88;51914.09;5047659;28;19932;-65
2021/08/31 11:21:21;;;;;;;;;;;;;;;-144.99;36.02;51885.56;5046661;28;19929;-65
2021/08/31 11:23:47;;;;;;;;;;;;;;;-144.99;36.22;51873.34;5034456;28;19975;-65
2021/08/31 11:26:21;;;;;;;;;;;;;;;-144.99;35.56;51871.31;5036723;28;19928;-65
2021/08/31 11:28:48;;;;;;;;;;;;;;;-144.99;35.01;51893.72;5046967;28;19972;-65
2021/08/31 11:31:22;;;;;;;;;;;;;;;-144.99;35.11;51918.19;5045390;28;19929;-65
2021/08/31 11:33:50;;;;;;;;;;;;;;;-144.99;35.28;51889.66;5043414;28;20160;-65
2021/08/31 11:36:18;;;;;;;;;;;;;;;-144.99;34.91;51905.97;5046273;28;19935;-65
2021/08/31 11:38:47;;;;;;;;;;;;;;;-144.99;35.27;52048.63;5046381;28;20408;-64
2021/08/31 11:41:14;;;;;;;;;;;;;;;-144.99;36.18;52099.56;5046690;28;20007;-65
2021/08/31 11:43:40;;;;;;;;;;;;;;;-144.99;37.09;52113.84;5043428;28;19929;-65
2021/08/31 11:46:07;;;;;;;;;;;;;;;-144.99;37.69;52168.84;5040172;28;19933;-65
2021/08/31 11:48:34;;;;;;;;;;;;;;;-144.99;38.76;52146.44;5046833;28;20027;-65
2021/08/31 11:51:01;;;;;;;;;;;;;;;-144.99;38.97;52018.03;5045972;28;19928;-65
2021/08/31 11:53:28;;;;;;;;;;;;;;;-144.99;38.60;52016.00;5046168;28;19936;-65
2021/08/31 11:55:56;;;;;;;;;;;;;;;-144.99;38.16;51946.72;5038505;28;19932;-65
2021/08/31 11:58:23;;;;;;;;;;;;;;;-144.99;37.87;51983.41;5046611;28;20502;-63
2021/08/31 12:00:49;;;;;;;;;;;;;;;-144.99;37.62;52007.84;5045950;28;19940;-64
2021/08/31 12:03:19;;;;;;;;;;;;;;;-144.99;37.73;51938.56;5045681;28;19929;-67
2021/08/31 12:05:46;;;;;;;;;;;;;;;-144.99;37.01;52093.44;5044342;28;19935;-65
2021/08/31 12:08:13;;;;;;;;;;;;;;;-144.99;37.64;52109.75;5045892;28;19925;-65
2021/08/31 12:10:40;;;;;;;;;;;;;;;-144.99;38.73;52121.97;5046200;28;19929;-65
2021/08/31 12:13:07;;;;;;;;;;;;;;;-144.99;39.06;52028.22;5046503;28;19936;-65
2021/08/31 12:15:34;;;;;;;;;;;;;;;-144.99;39.68;52005.81;5044681;28;19936;-65
2021/08/31 12:18:01;;;;;;;;;;;;;;;-144.99;38.13;52016.00;5044788;28;19928;-66
2021/08/31 12:20:27;;;;;;;;;;;;;;;-144.99;38.28;51999.69;5045421;28;20300;-66
2021/08/31 12:22:55;;;;;;;;;;;;;;;-144.99;37.67;51954.88;5046031;28;19947;-66
2021/08/31 12:25:22;;;;;;;;;;;;;;;-144.99;36.34;52048.63;5046728;28;19943;-66